sensor_id;sensor_type;location;lat;lon;timestamp;pressure;altitude;pressure_sealevel;temperature;humidity
11621;BME280;5866;49.094;11.900;2023-12-20T00:00:38;96099.53;;;5.32;100.00
11621;BME280;5866;49.094;11.900;2023-12-20T00:03:05;96090.25;;;5.78;100.00
11621;BME280;5866;49.094;11.900;2023-12-20T00:05:33;96091.88;;;5.59;100.00
11621;BME280;5866;49.094;11.900;2023-12-20T00:08:02;96092.34;;;5.34;100.00
11621;BME280;5866;49.094;11.900;2023-12-20T00:10:33;96084.59;;;5.33;100.00
11621;BME280;5866;49.094;11.900;2023-12-20T00:13:00;96088.84;;;5.24;100.00
11621;BME280;5866;49.094;11.900;2023-12-20T00:15:28;96107.63;;;5.10;100.00
11621;BME280;5866;49.094;11.900;2023-12-20T00:17:56;96091.69;;;5.02;100.00
11621;BME280;5866;49.094;11.900;2023-12-20T00:20:23;96091.72;;;4.81;100.00
11621;BME280;5866;49.094;11.900;2023-12-20T00:22:51;96087.09;;;4.74;100.00
11621;BME280;5866;49.094;11.900;2023-12-20T00:25:18;96088.97;;;4.83;100.00
11621;BME280;5866;49.094;11.900;2023-12-20T00:27:47;96084.13;;;4.88;100.00
11621;BME280;5866;49.094;11.900;2023-12-20T00:30:15;96085.03;;;4.98;100.00
11621;BME280;5866;49.094;11.900;2023-12-20T00:32:43;96076.09;;;5.10;100.00
11621;BME280;5866;49.094;11.900;2023-12-20T00:35:13;96073.53;;;4.99;100.00
11621;BME280;5866;49.094;11.900;2023-12-20T00:37:41;96075.09;;;5.11;100.00
11621;BME280;5866;49.094;11.900;2023-12-20T00:40:09;96065.72;;;5.09;100.00
11621;BME280;5866;49.094;11.900;2023-12-20T00:42:37;96070.44;;;5.24;100.00
11621;BME280;5866;49.094;11.900;2023-12-20T00:45:07;96065.03;;;5.26;100.00
11621;BME280;5866;49.094;11.900;2023-12-20T00:47:34;96059.41;;;5.30;100.00
11621;BME280;5866;49.094;11.900;2023-12-20T00:50:02;96065.47;;;5.21;100.00
11621;BME280;5866;49.094;11.900;2023-12-20T00:52:30;96062.47;;;4.96;100.00
11621;BME280;5866;49.094;11.900;2023-12-20T00:54:58;96066.53;;;4.79;100.00
11621;BME280;5866;49.094;11.900;2023-12-20T00:57:26;96065.50;;;5.01;100.00
11621;BME280;5866;49.094;11.900;2023-12-20T00:59:53;96077.34;;;4.86;100.00
11621;BME280;5866;49.094;11.900;2023-12-20T01:02:22;96075.03;;;4.92;100.00
11621;BME280;5866;49.094;11.900;2023-12-20T01:04:50;96076.09;;;5.10;100.00
11621;BME280;5866;49.094;11.900;2023-12-20T01:07:17;96086.69;;;4.99;100.00
11621;BME280;5866;49.094;11.900;2023-12-20T01:09:45;96086.97;;;4.96;100.00
11621;BME280;5866;49.094;11.900;2023-12-20T01:12:13;96072.13;;;4.95;100.00
11621;BME280;5866;49.094;11.900;2023-12-20T01:14:40;96075.75;;;4.73;100.00
11621;BME280;5866;49.094;11.900;2023-12-20T01:17:08;96084.34;;;4.55;100.00
11621;BME280;5866;49.094;11.900;2023-12-20T01:19:37;96086.66;;;4.48;100.00
11621;BME280;5866;49.094;11.900;2023-12-20T01:22:05;96094.63;;;4.58;100.00
11621;BME280;5866;49.094;11.900;2023-12-20T01:24:33;96085.16;;;4.46;100.00
11621;BME280;5866;49.094;11.900;2023-12-20T01:27:00;96086.78;;;4.47;100.00
11621;BME280;5866;49.094;11.900;2023-12-20T01:29:28;96074.69;;;4.55;100.00
11621;BME280;5866;49.094;11.900;2023-12-20T01:31:56;96076.59;;;4.74;100.00
11621;BME280;5866;49.094;11.900;2023-12-20T01:34:23;96062.53;;;4.84;100.00
11621;BME280;5866;49.094;11.900;2023-12-20T01:36:52;96056.28;;;5.06;100.00
11621;BME280;5866;49.094;11.900;2023-12-20T01:39:20;96049.25;;;5.16;100.00
11621;BME280;5866;49.094;11.900;2023-12-20T01:41:55;96046.69;;;4.96;100.00
11621;BME280;5866;49.094;11.900;2023-12-20T01:44:22;96049.75;;;4.70;100.00
11621;BME280;5866;49.094;11.900;2023-12-20T01:46:51;96053.16;;;4.61;100.00
11621;BME280;5866;49.094;11.900;2023-12-20T01:49:18;96048.66;;;4.73;100.00
11621;BME280;5866;49.094;11.900;2023-12-20T01:51:47;96046.88;;;4.53;100.00
11621;BME280;5866;49.094;11.900;2023-12-20T01:54:17;96049.97;;;4.58;100.00
11621;BME280;5866;49.094;11.900;2023-12-20T01:56:47;96049.69;;;4.61;100.00
11621;BME280;5866;49.094;11.900;2023-12-20T01:59:17;96061.88;;;4.62;100.00
11621;BME280;5866;49.094;11.900;2023-12-20T02:01:46;96058.38;;;4.82;100.00
11621;BME280;5866;49.094;11.900;2023-12-20T02:04:14;96055.66;;;4.63;100.00
11621;BME280;5866;49.094;11.900;2023-12-20T02:06:43;96047.47;;;4.87;100.00
11621;BME280;5866;49.094;11.900;2023-12-20T02:09:13;96044.91;;;4.96;100.00
11621;BME280;5866;49.094;11.900;2023-12-20T02:11:43;96043.69;;;5.00;100.00
11621;BME280;5866;49.094;11.900;2023-12-20T02:14:11;96039.03;;;4.83;100.00
11621;BME280;5866;49.094;11.900;2023-12-20T02:16:39;96027.75;;;5.02;100.00
11621;BME280;5866;49.094;11.900;2023-12-20T02:19:12;96030.69;;;4.78;100.00
11621;BME280;5866;49.094;11.900;2023-12-20T02:21:42;96020.81;;;5.01;100.00
11621;BME280;5866;49.094;11.900;2023-12-20T02:24:09;96020.03;;;5.00;100.00
11621;BME280;5866;49.094;11.900;2023-12-20T02:26:37;96017.56;;;5.08;100.00
11621;BME280;5866;49.094;11.900;2023-12-20T02:29:04;96012.59;;;5.15;100.00
11621;BME280;5866;49.094;11.900;2023-12-20T02:31:32;96005.50;;;5.06;100.00
11621;BME280;5866;49.094;11.900;2023-12-20T02:34:00;96015.19;;;5.05;100.00
11621;BME280;5866;49.094;11.900;2023-12-20T02:36:27;96002.38;;;5.40;100.00
11621;BME280;5866;49.094;11.900;2023-12-20T02:38:56;95996.13;;;5.22;100.00
11621;BME280;5866;49.094;11.900;2023-12-20T02:41:24;95998.09;;;5.30;100.00
11621;BME280;5866;49.094;11.900;2023-12-20T02:43:51;96001.94;;;5.07;100.00
11621;BME280;5866;49.094;11.900;2023-12-20T02:46:19;96001.78;;;5.08;100.00
11621;BME280;5866;49.094;11.900;2023-12-20T02:48:46;96010.28;;;4.91;100.00
11621;BME280;5866;49.094;11.900;2023-12-20T02:51:14;96004.31;;;5.19;100.00
11621;BME280;5866;49.094;11.900;2023-12-20T02:53:42;96002.09;;;5.24;100.00
11621;BME280;5866;49.094;11.900;2023-12-20T02:56:11;95998.22;;;5.28;100.00
11621;BME280;5866;49.094;11.900;2023-12-20T02:58:38;96001.78;;;5.08;100.00
11621;BME280;5866;49.094;11.900;2023-12-20T03:01:06;96000.19;;;5.45;100.00
11621;BME280;5866;49.094;11.900;2023-12-20T03:03:34;95993.81;;;5.29;100.00
11621;BME280;5866;49.094;11.900;2023-12-20T03:06:00;95991.06;;;5.49;100.00
11621;BME280;5866;49.094;11.900;2023-12-20T03:08:28;95983.16;;;5.49;100.00
11621;BME280;5866;49.094;11.900;2023-12-20T03:10:59;95976.88;;;5.12;100.00
11621;BME280;5866;49.094;11.900;2023-12-20T03:13:28;95982.97;;;5.13;100.00
11621;BME280;5866;49.094;11.900;2023-12-20T03:15:55;95989.03;;;4.94;100.00
11621;BME280;5866;49.094;11.900;2023-12-20T03:18:23;95994.53;;;4.91;100.00
11621;BME280;5866;49.094;11.900;2023-12-20T03:20:51;95994.03;;;4.67;100.00
11621;BME280;5866;49.094;11.900;2023-12-20T03:23:19;95994.28;;;4.94;100.00
11621;BME280;5866;49.094;11.900;2023-12-20T03:25:46;95988.19;;;5.03;100.00
11621;BME280;5866;49.094;11.900;2023-12-20T03:28:14;95985.22;;;5.17;100.00
11621;BME280;5866;49.094;11.900;2023-12-20T03:30:43;95987.16;;;5.34;100.00
11621;BME280;5866;49.094;11.900;2023-12-20T03:33:11;95986.81;;;4.99;100.00
11621;BME280;5866;49.094;11.900;2023-12-20T03:35:39;95992.56;;;4.83;100.00
11621;BME280;5866;49.094;11.900;2023-12-20T03:38:06;95999.19;;;4.78;100.00
11621;BME280;5866;49.094;11.900;2023-12-20T03:40:34;95993.44;;;4.63;100.00
11621;BME280;5866;49.094;11.900;2023-12-20T03:43:01;95998.50;;;4.46;100.00
11621;BME280;5866;49.094;11.900;2023-12-20T03:45:29;96004.16;;;4.51;100.00
11621;BME280;5866;49.094;11.900;2023-12-20T03:47:58;96004.13;;;4.41;100.00
11621;BME280;5866;49.094;11.900;2023-12-20T03:50:26;96003.44;;;4.39;100.00
11621;BME280;5866;49.094;11.900;2023-12-20T03:52:54;96006.25;;;4.57;100.00
11621;BME280;5866;49.094;11.900;2023-12-20T03:55:22;96002.63;;;4.69;100.00
11621;BME280;5866;49.094;11.900;2023-12-20T03:57:50;96016.06;;;4.25;100.00
11621;BME280;5866;49.094;11.900;2023-12-20T04:00:17;95999.44;;;4.45;100.00
11621;BME280;5866;49.094;11.900;2023-12-20T04:02:45;96007.84;;;4.39;100.00
11621;BME280;5866;49.094;11.900;2023-12-20T04:05:14;96000.81;;;4.19;100.00
11621;BME280;5866;49.094;11.900;2023-12-20T04:07:42;96014.69;;;4.10;100.00
11621;BME280;5866;49.094;11.900;2023-12-20T04:10:10;96001.00;;;4.27;100.00
11621;BME280;5866;49.094;11.900;2023-12-20T04:12:38;96003.81;;;3.93;100.00
11621;BME280;5866;49.094;11.900;2023-12-20T04:15:06;96010.16;;;4.12;100.00
11621;BME280;5866;49.094;11.900;2023-12-20T04:17:36;96004.22;;;3.89;100.00
11621;BME280;5866;49.094;11.900;2023-12-20T04:20:05;96007.25;;;3.94;100.00
11621;BME280;5866;49.094;11.900;2023-12-20T04:22:34;96011.19;;;3.99;100.00
11621;BME280;5866;49.094;11.900;2023-12-20T04:25:02;96010.19;;;3.80;100.00
11621;BME280;5866;49.094;11.900;2023-12-20T04:27:30;96011.59;;;3.84;100.00
11621;BME280;5866;49.094;11.900;2023-12-20T04:29:57;96008.84;;;3.85;100.00
11621;BME280;5866;49.094;11.900;2023-12-20T04:32:25;96022.09;;;3.84;100.00
11621;BME280;5866;49.094;11.900;2023-12-20T04:34:53;96012.44;;;3.84;100.00
11621;BME280;5866;49.094;11.900;2023-12-20T04:37:20;96025.75;;;3.72;100.00
11621;BME280;5866;49.094;11.900;2023-12-20T04:39:49;96015.94;;;3.74;100.00
11621;BME280;5866;49.094;11.900;2023-12-20T04:42:17;96013.91;;;3.77;100.00
11621;BME280;5866;49.094;11.900;2023-12-20T04:44:45;96006.97;;;3.87;100.00
11621;BME280;5866;49.094;11.900;2023-12-20T04:47:12;96013.53;;;3.82;100.00
11621;BME280;5866;49.094;11.900;2023-12-20T04:49:40;96004.72;;;3.83;100.00
11621;BME280;5866;49.094;11.900;2023-12-20T04:52:07;96008.81;;;3.96;100.00
11621;BME280;5866;49.094;11.900;2023-12-20T04:54:35;96004.03;;;4.01;100.00
11621;BME280;5866;49.094;11.900;2023-12-20T04:57:04;96006.97;;;3.87;100.00
11621;BME280;5866;49.094;11.900;2023-12-20T04:59:32;96014.00;;;3.87;100.00
11621;BME280;5866;49.094;11.900;2023-12-20T05:01:59;96010.34;;;3.99;100.00
11621;BME280;5866;49.094;11.900;2023-12-20T05:04:27;96013.03;;;4.09;100.00
11621;BME280;5866;49.094;11.900;2023-12-20T05:06:55;96013.81;;;4.20;100.00
11621;BME280;5866;49.094;11.900;2023-12-20T05:09:23;96010.63;;;4.17;100.00
11621;BME280;5866;49.094;11.900;2023-12-20T05:11:50;96004.91;;;4.12;100.00
11621;BME280;5866;49.094;11.900;2023-12-20T05:14:19;96008.75;;;4.28;100.00
11621;BME280;5866;49.094;11.900;2023-12-20T05:16:47;96009.47;;;4.10;100.00
11621;BME280;5866;49.094;11.900;2023-12-20T05:19:14;96005.28;;;4.28;100.00
11621;BME280;5866;49.094;11.900;2023-12-20T05:21:42;96020.22;;;4.27;100.00
11621;BME280;5866;49.094;11.900;2023-12-20T05:24:10;96016.09;;;4.34;100.00
11621;BME280;5866;49.094;11.900;2023-12-20T05:26:37;96026.59;;;4.34;100.00
11621;BME280;5866;49.094;11.900;2023-12-20T05:29:05;96026.03;;;4.31;100.00
11621;BME280;5866;49.094;11.900;2023-12-20T05:31:34;96027.06;;;4.19;100.00
11621;BME280;5866;49.094;11.900;2023-12-20T05:34:01;96027.59;;;4.13;100.00
11621;BME280;5866;49.094;11.900;2023-12-20T05:36:29;96024.34;;;4.30;100.00
11621;BME280;5866;49.094;11.900;2023-12-20T05:38:57;96036.47;;;4.42;100.00
11621;BME280;5866;49.094;11.900;2023-12-20T05:41:24;96042.53;;;4.22;100.00
11621;BME280;5866;49.094;11.900;2023-12-20T05:43:52;96054.06;;;4.51;100.00
11621;BME280;5866;49.094;11.900;2023-12-20T05:46:20;96050.50;;;4.52;100.00
11621;BME280;5866;49.094;11.900;2023-12-20T05:48:49;96056.97;;;4.48;100.00
11621;BME280;5866;49.094;11.900;2023-12-20T05:51:18;96064.75;;;4.59;100.00
11621;BME280;5866;49.094;11.900;2023-12-20T05:53:45;96069.81;;;4.51;100.00
11621;BME280;5866;49.094;11.900;2023-12-20T05:56:13;96067.09;;;4.52;100.00
11621;BME280;5866;49.094;11.900;2023-12-20T05:58:41;96065.78;;;4.26;100.00
11621;BME280;5866;49.094;11.900;2023-12-20T06:01:08;96066.94;;;4.13;100.00
11621;BME280;5866;49.094;11.900;2023-12-20T06:03:36;96070.06;;;4.07;100.00
11621;BME280;5866;49.094;11.900;2023-12-20T06:06:06;96073.53;;;4.28;100.00
11621;BME280;5866;49.094;11.900;2023-12-20T06:08:42;96069.97;;;4.29;100.00
11621;BME280;5866;49.094;11.900;2023-12-20T06:11:10;96075.97;;;4.20;100.00
11621;BME280;5866;49.094;11.900;2023-12-20T06:13:39;96078.22;;;4.45;100.00
11621;BME280;5866;49.094;11.900;2023-12-20T06:16:06;96082.69;;;4.74;100.00
11621;BME280;5866;49.094;11.900;2023-12-20T06:18:34;96064.59;;;5.11;100.00
11621;BME280;5866;49.094;11.900;2023-12-20T06:21:04;96063.09;;;5.68;100.00
11621;BME280;5866;49.094;11.900;2023-12-20T06:23:34;96067.59;;;5.86;100.00
11621;BME280;5866;49.094;11.900;2023-12-20T06:26:02;96075.19;;;4.70;100.00
11621;BME280;5866;49.094;11.900;2023-12-20T06:28:30;96086.56;;;4.29;100.00
11621;BME280;5866;49.094;11.900;2023-12-20T06:30:57;96096.97;;;4.20;100.00
11621;BME280;5866;49.094;11.900;2023-12-20T06:33:27;96099.16;;;4.15;100.00
11621;BME280;5866;49.094;11.900;2023-12-20T06:35:55;96093.94;;;4.03;100.00
11621;BME280;5866;49.094;11.900;2023-12-20T06:38:23;96087.13;;;4.33;100.00
11621;BME280;5866;49.094;11.900;2023-12-20T06:40:52;96090.44;;;4.35;100.00
11621;BME280;5866;49.094;11.900;2023-12-20T06:43:20;96091.31;;;4.03;100.00
11621;BME280;5866;49.094;11.900;2023-12-20T06:46:07;96102.06;;;4.00;100.00
11621;BME280;5866;49.094;11.900;2023-12-20T06:48:35;96100.16;;;4.23;100.00
11621;BME280;5866;49.094;11.900;2023-12-20T06:51:03;96098.38;;;4.24;100.00
11621;BME280;5866;49.094;11.900;2023-12-20T06:53:30;96116.22;;;4.09;100.00
11621;BME280;5866;49.094;11.900;2023-12-20T06:55:59;96115.38;;;4.09;100.00
11621;BME280;5866;49.094;11.900;2023-12-20T06:58:27;96118.28;;;4.06;100.00
11621;BME280;5866;49.094;11.900;2023-12-20T07:00:55;96116.22;;;4.09;100.00
11621;BME280;5866;49.094;11.900;2023-12-20T07:03:22;96125.22;;;3.95;100.00
11621;BME280;5866;49.094;11.900;2023-12-20T07:05:50;96129.97;;;4.01;100.00
11621;BME280;5866;49.094;11.900;2023-12-20T07:08:18;96130.19;;;4.10;100.00
11621;BME280;5866;49.094;11.900;2023-12-20T07:10:45;96135.75;;;3.84;100.00
11621;BME280;5866;49.094;11.900;2023-12-20T07:13:14;96132.06;;;3.87;100.00
11621;BME280;5866;49.094;11.900;2023-12-20T07:15:42;96128.44;;;3.88;100.00
11621;BME280;5866;49.094;11.900;2023-12-20T07:18:10;96132.06;;;3.87;100.00
11621;BME280;5866;49.094;11.900;2023-12-20T07:20:38;96141.13;;;3.83;100.00
11621;BME280;5866;49.094;11.900;2023-12-20T07:23:06;96123.16;;;3.67;100.00
11621;BME280;5866;49.094;11.900;2023-12-20T07:25:33;96145.19;;;3.65;100.00
11621;BME280;5866;49.094;11.900;2023-12-20T07:28:01;96154.16;;;3.62;100.00
11621;BME280;5866;49.094;11.900;2023-12-20T07:30:30;96155.53;;;3.77;100.00
11621;BME280;5866;49.094;11.900;2023-12-20T07:32:57;96152.34;;;3.74;100.00
11621;BME280;5866;49.094;11.900;2023-12-20T07:35:25;96170.59;;;4.18;100.00
11621;BME280;5866;49.094;11.900;2023-12-20T07:37:53;96176.59;;;3.98;100.00
11621;BME280;5866;49.094;11.900;2023-12-20T07:40:20;96168.25;;;4.04;100.00
11621;BME280;5866;49.094;11.900;2023-12-20T07:42:50;96178.38;;;4.09;100.00
11621;BME280;5866;49.094;11.900;2023-12-20T07:45:17;96180.53;;;4.15;100.00
11621;BME280;5866;49.094;11.900;2023-12-20T07:47:46;96187.13;;;4.30;100.00
11621;BME280;5866;49.094;11.900;2023-12-20T07:50:15;96185.72;;;4.26;100.00
11621;BME280;5866;49.094;11.900;2023-12-20T07:52:43;96199.81;;;4.25;100.00
11621;BME280;5866;49.094;11.900;2023-12-20T07:55:11;96195.13;;;4.28;100.00
11621;BME280;5866;49.094;11.900;2023-12-20T07:57:38;96192.16;;;4.33;100.00
11621;BME280;5866;49.094;11.900;2023-12-20T08:00:07;96194.91;;;4.31;100.00
11621;BME280;5866;49.094;11.900;2023-12-20T08:02:35;96200.19;;;4.52;100.00
11621;BME280;5866;49.094;11.900;2023-12-20T08:05:04;96195.88;;;4.51;100.00
11621;BME280;5866;49.094;11.900;2023-12-20T08:07:31;96200.19;;;4.52;100.00
11621;BME280;5866;49.094;11.900;2023-12-20T08:09:59;96199.22;;;4.53;100.00
11621;BME280;5866;49.094;11.900;2023-12-20T08:12:27;96207.19;;;4.31;100.00
11621;BME280;5866;49.094;11.900;2023-12-20T08:14:55;96219.41;;;4.52;100.00
11621;BME280;5866;49.094;11.900;2023-12-20T08:17:23;96221.03;;;4.64;100.00
11621;BME280;5866;49.094;11.900;2023-12-20T08:19:51;96220.56;;;4.28;100.00
11621;BME280;5866;49.094;11.900;2023-12-20T08:22:20;96210.50;;;4.44;100.00
11621;BME280;5866;49.094;11.900;2023-12-20T08:24:48;96217.72;;;4.51;100.00
11621;BME280;5866;49.094;11.900;2023-12-20T08:27:15;96219.88;;;4.46;100.00
11621;BME280;5866;49.094;11.900;2023-12-20T08:29:43;96226.47;;;4.41;100.00
11621;BME280;5866;49.094;11.900;2023-12-20T08:32:11;96227.91;;;4.45;100.00
11621;BME280;5866;49.094;11.900;2023-12-20T08:34:38;96224.78;;;4.71;100.00
11621;BME280;5866;49.094;11.900;2023-12-20T08:37:06;96228.47;;;4.48;100.00
11621;BME280;5866;49.094;11.900;2023-12-20T08:39:35;96218.94;;;4.79;100.00
11621;BME280;5866;49.094;11.900;2023-12-20T08:42:03;96210.75;;;4.61;100.00
11621;BME280;5866;49.094;11.900;2023-12-20T08:44:31;96214.38;;;4.81;100.00
11621;BME280;5866;49.094;11.900;2023-12-20T08:46:58;96202.47;;;4.77;100.00
11621;BME280;5866;49.094;11.900;2023-12-20T08:49:26;96207.63;;;4.36;100.00
11621;BME280;5866;49.094;11.900;2023-12-20T08:51:54;96212.06;;;4.67;100.00
11621;BME280;5866;49.094;11.900;2023-12-20T08:54:22;96221.44;;;4.49;100.00
11621;BME280;5866;49.094;11.900;2023-12-20T08:56:52;96218.91;;;4.58;100.00
11621;BME280;5866;49.094;11.900;2023-12-20T08:59:19;96223.56;;;4.55;100.00
11621;BME280;5866;49.094;11.900;2023-12-20T09:01:47;96215.56;;;4.56;100.00
11621;BME280;5866;49.094;11.900;2023-12-20T09:04:20;96213.22;;;4.42;100.00
11621;BME280;5866;49.094;11.900;2023-12-20T09:06:48;96208.66;;;4.44;100.00
11621;BME280;5866;49.094;11.900;2023-12-20T09:09:16;96210.72;;;4.41;100.00
11621;BME280;5866;49.094;11.900;2023-12-20T09:11:43;96216.44;;;4.46;100.00
11621;BME280;5866;49.094;11.900;2023-12-20T09:14:14;96209.03;;;4.71;100.00
11621;BME280;5866;49.094;11.900;2023-12-20T09:16:41;96209.25;;;4.79;100.00
11621;BME280;5866;49.094;11.900;2023-12-20T09:19:09;96208.47;;;4.68;100.00
11621;BME280;5866;49.094;11.900;2023-12-20T09:21:37;96208.31;;;4.49;100.00
11621;BME280;5866;49.094;11.900;2023-12-20T09:24:05;96200.91;;;4.54;100.00
11621;BME280;5866;49.094;11.900;2023-12-20T09:26:32;96215.34;;;4.48;100.00
11621;BME280;5866;49.094;11.900;2023-12-20T09:29:00;96218.94;;;4.47;100.00
11621;BME280;5866;49.094;11.900;2023-12-20T09:31:29;96222.91;;;4.42;100.00
11621;BME280;5866;49.094;11.900;2023-12-20T09:33:57;96230.78;;;4.42;100.00
11621;BME280;5866;49.094;11.900;2023-12-20T09:36:25;96215.97;;;4.41;100.00
11621;BME280;5866;49.094;11.900;2023-12-20T09:38:53;96213.56;;;4.49;100.00
11621;BME280;5866;49.094;11.900;2023-12-20T09:41:22;96218.09;;;4.47;100.00
11621;BME280;5866;49.094;11.900;2023-12-20T09:43:52;96231.41;;;4.66;100.00
11621;BME280;5866;49.094;11.900;2023-12-20T09:46:24;96226.16;;;4.87;100.00
11621;BME280;5866;49.094;11.900;2023-12-20T09:48:56;96203.47;;;4.65;100.00
11621;BME280;5866;49.094;11.900;2023-12-20T09:51:24;96215.16;;;4.61;100.00
11621;BME280;5866;49.094;11.900;2023-12-20T09:53:54;96216.81;;;4.41;100.00
11621;BME280;5866;49.094;11.900;2023-12-20T09:56:23;96214.91;;;4.43;100.00
11621;BME280;5866;49.094;11.900;2023-12-20T09:58:51;96208.56;;;4.46;100.00
11621;BME280;5866;49.094;11.900;2023-12-20T10:01:19;96204.03;;;4.48;100.00
11621;BME280;5866;49.094;11.900;2023-12-20T10:03:46;96204.59;;;4.51;100.00
11621;BME280;5866;49.094;11.900;2023-12-20T10:06:16;96186.22;;;4.93;100.00
11621;BME280;5866;49.094;11.900;2023-12-20T10:08:44;96190.97;;;4.99;100.00
11621;BME280;5866;49.094;11.900;2023-12-20T10:11:11;96179.47;;;4.90;100.00
11621;BME280;5866;49.094;11.900;2023-12-20T10:13:40;96180.78;;;5.05;100.00
11621;BME280;5866;49.094;11.900;2023-12-20T10:16:08;96185.50;;;5.11;100.00
11621;BME280;5866;49.094;11.900;2023-12-20T10:18:36;96169.50;;;5.14;100.00
11621;BME280;5866;49.094;11.900;2023-12-20T10:21:05;96162.94;;;5.29;100.00
11621;BME280;5866;49.094;11.900;2023-12-20T10:23:35;96171.56;;;5.11;100.00
11621;BME280;5866;49.094;11.900;2023-12-20T10:26:03;96168.66;;;5.14;100.00
11621;BME280;5866;49.094;11.900;2023-12-20T10:28:33;96168.91;;;5.71;100.00
11621;BME280;5866;49.094;11.900;2023-12-20T10:31:01;96163.97;;;5.47;100.00
11621;BME280;5866;49.094;11.900;2023-12-20T10:33:30;96179.41;;;5.31;100.00
11621;BME280;5866;49.094;11.900;2023-12-20T10:35:59;96182.97;;;5.00;100.00
11621;BME280;5866;49.094;11.900;2023-12-20T10:38:27;96183.34;;;5.46;100.00
11621;BME280;5866;49.094;11.900;2023-12-20T10:40:58;96183.69;;;5.93;100.00
11621;BME280;5866;49.094;11.900;2023-12-20T10:43:27;96175.44;;;6.26;100.00
11621;BME280;5866;49.094;11.900;2023-12-20T10:45:57;96182.47;;;5.67;100.00
11621;BME280;5866;49.094;11.900;2023-12-20T10:48:24;96180.03;;;5.44;100.00
11621;BME280;5866;49.094;11.900;2023-12-20T10:50:56;96182.06;;;5.41;100.00
11621;BME280;5866;49.094;11.900;2023-12-20T10:53:24;96174.50;;;5.17;100.00
11621;BME280;5866;49.094;11.900;2023-12-20T10:55:52;96173.47;;;5.39;100.00
11621;BME280;5866;49.094;11.900;2023-12-20T10:58:24;96176.81;;;5.41;100.00
11621;BME280;5866;49.094;11.900;2023-12-20T11:00:58;96181.97;;;5.82;100.00
11621;BME280;5866;49.094;11.900;2023-12-20T11:03:28;96163.16;;;5.87;100.00
11621;BME280;5866;49.094;11.900;2023-12-20T11:06:01;96171.56;;;5.81;100.00
11621;BME280;5866;49.094;11.900;2023-12-20T11:08:33;96171.41;;;5.73;100.00
11621;BME280;5866;49.094;11.900;2023-12-20T11:11:07;96168.28;;;5.48;100.00
11621;BME280;5866;49.094;11.900;2023-12-20T11:13:43;96174.31;;;6.09;100.00
11621;BME280;5866;49.094;11.900;2023-12-20T11:16:15;96153.09;;;6.20;100.00
11621;BME280;5866;49.094;11.900;2023-12-20T11:18:44;96159.91;;;6.32;100.00
11621;BME280;5866;49.094;11.900;2023-12-20T11:21:12;96152.41;;;6.37;100.00
11621;BME280;5866;49.094;11.900;2023-12-20T11:23:42;96152.66;;;6.06;100.00
11621;BME280;5866;49.094;11.900;2023-12-20T11:26:09;96143.78;;;5.88;100.00
11621;BME280;5866;49.094;11.900;2023-12-20T11:28:38;96150.00;;;5.87;100.00
11621;BME280;5866;49.094;11.900;2023-12-20T11:31:06;96138.53;;;6.07;100.00
11621;BME280;5866;49.094;11.900;2023-12-20T11:33:37;96130.22;;;6.21;100.00
11621;BME280;5866;49.094;11.900;2023-12-20T11:36:12;96141.06;;;6.27;100.00
11621;BME280;5866;49.094;11.900;2023-12-20T11:38:53;96130.75;;;6.05;100.00
11621;BME280;5866;49.094;11.900;2023-12-20T11:41:22;96136.44;;;5.91;100.00
11621;BME280;5866;49.094;11.900;2023-12-20T11:43:52;96134.38;;;5.95;100.00
11621;BME280;5866;49.094;11.900;2023-12-20T11:46:20;96132.69;;;6.03;100.00
11621;BME280;5866;49.094;11.900;2023-12-20T11:48:48;96136.06;;;6.15;100.00
11621;BME280;5866;49.094;11.900;2023-12-20T11:51:16;96124.00;;;6.31;100.00
11621;BME280;5866;49.094;11.900;2023-12-20T11:53:43;96122.06;;;6.53;100.00
11621;BME280;5866;49.094;11.900;2023-12-20T11:56:11;96118.84;;;6.01;100.00
11621;BME280;5866;49.094;11.900;2023-12-20T11:58:39;96105.31;;;5.56;100.00
11621;BME280;5866;49.094;11.900;2023-12-20T12:01:09;96121.47;;;5.52;100.00
11621;BME280;5866;49.094;11.900;2023-12-20T12:03:37;96116.47;;;5.49;100.00
11621;BME280;5866;49.094;11.900;2023-12-20T12:06:05;96109.81;;;5.45;100.00
11621;BME280;5866;49.094;11.900;2023-12-20T12:08:35;96112.16;;;5.38;100.00
11621;BME280;5866;49.094;11.900;2023-12-20T12:11:03;96118.09;;;5.40;100.00
11621;BME280;5866;49.094;11.900;2023-12-20T12:13:30;96112.81;;;5.21;100.00
11621;BME280;5866;49.094;11.900;2023-12-20T12:15:58;96117.06;;;5.22;100.00
11621;BME280;5866;49.094;11.900;2023-12-20T12:18:27;96126.09;;;4.99;100.00
11621;BME280;5866;49.094;11.900;2023-12-20T12:21:00;96124.13;;;4.92;100.00
11621;BME280;5866;49.094;11.900;2023-12-20T12:23:28;96131.81;;;5.04;100.00
11621;BME280;5866;49.094;11.900;2023-12-20T12:25:55;96128.72;;;4.99;100.00
11621;BME280;5866;49.094;11.900;2023-12-20T12:28:25;96133.84;;;5.21;100.00
11621;BME280;5866;49.094;11.900;2023-12-20T12:30:57;96125.03;;;5.32;100.00
11621;BME280;5866;49.094;11.900;2023-12-20T12:33:25;96119.75;;;5.32;100.00
11621;BME280;5866;49.094;11.900;2023-12-20T12:35:55;96104.31;;;5.57;100.00
11621;BME280;5866;49.094;11.900;2023-12-20T12:38:24;96101.50;;;5.40;100.00
11621;BME280;5866;49.094;11.900;2023-12-20T12:40:51;96109.25;;;5.41;100.00
11621;BME280;5866;49.094;11.900;2023-12-20T12:43:20;96115.50;;;5.10;100.00
11621;BME280;5866;49.094;11.900;2023-12-20T12:45:49;96117.97;;;5.02;100.00
11621;BME280;5866;49.094;11.900;2023-12-20T12:48:17;96109.41;;;5.10;100.00
11621;BME280;5866;49.094;11.900;2023-12-20T12:50:45;96110.94;;;4.82;100.00
11621;BME280;5866;49.094;11.900;2023-12-20T12:53:13;96099.53;;;4.72;100.00
11621;BME280;5866;49.094;11.900;2023-12-20T12:55:40;96106.91;;;4.78;100.00
11621;BME280;5866;49.094;11.900;2023-12-20T12:58:08;96109.28;;;5.11;100.00
11621;BME280;5866;49.094;11.900;2023-12-20T13:00:36;96109.00;;;5.44;100.00
11621;BME280;5866;49.094;11.900;2023-12-20T13:03:04;96112.34;;;5.56;100.00
11621;BME280;5866;49.094;11.900;2023-12-20T13:05:30;96105.22;;;5.77;100.00